sensor_id;sensor_type;location;lat;lon;timestamp;temperature;humidity
4054;DHT22;2042;47.956;9.222;2024-01-15T00:02:16;-1.90;21.40
4054;DHT22;2042;47.956;9.222;2024-01-15T00:04:41;-2.00;21.40
4054;DHT22;2042;47.956;9.222;2024-01-15T00:07:08;-2.10;20.70
4054;DHT22;2042;47.956;9.222;2024-01-15T00:09:34;-2.10;20.70
4054;DHT22;2042;47.956;9.222;2024-01-15T00:12:00;-2.10;20.70
4054;DHT22;2042;47.956;9.222;2024-01-15T00:14:26;-2.20;20.40
4054;DHT22;2042;47.956;9.222;2024-01-15T00:16:52;-2.30;20.10
4054;DHT22;2042;47.956;9.222;2024-01-15T00:19:20;-2.40;19.40
4054;DHT22;2042;47.956;9.222;2024-01-15T00:21:46;-2.50;19.00
4054;DHT22;2042;47.956;9.222;2024-01-15T00:24:14;-2.60;18.50
4054;DHT22;2042;47.956;9.222;2024-01-15T00:26:40;-2.70;17.90
4054;DHT22;2042;47.956;9.222;2024-01-15T00:29:07;-2.80;17.70
4054;DHT22;2042;47.956;9.222;2024-01-15T00:31:33;-2.90;18.00
4054;DHT22;2042;47.956;9.222;2024-01-15T00:33:59;-2.90;18.40
4054;DHT22;2042;47.956;9.222;2024-01-15T00:36:26;-3.00;18.20
4054;DHT22;2042;47.956;9.222;2024-01-15T00:38:52;-3.00;18.70
4054;DHT22;2042;47.956;9.222;2024-01-15T00:41:18;-3.00;19.50
4054;DHT22;2042;47.956;9.222;2024-01-15T00:43:45;-3.00;19.90
4054;DHT22;2042;47.956;9.222;2024-01-15T00:46:10;-3.00;19.60
4054;DHT22;2042;47.956;9.222;2024-01-15T00:48:36;-3.00;19.60
4054;DHT22;2042;47.956;9.222;2024-01-15T00:51:03;-3.10;19.60
4054;DHT22;2042;47.956;9.222;2024-01-15T00:53:29;-3.10;19.30
4054;DHT22;2042;47.956;9.222;2024-01-15T00:55:55;-3.20;18.90
4054;DHT22;2042;47.956;9.222;2024-01-15T00:58:20;-3.30;18.40
4054;DHT22;2042;47.956;9.222;2024-01-15T01:00:46;-3.40;17.80
4054;DHT22;2042;47.956;9.222;2024-01-15T01:03:12;-3.50;17.60
4054;DHT22;2042;47.956;9.222;2024-01-15T01:05:38;-3.60;17.40
4054;DHT22;2042;47.956;9.222;2024-01-15T01:08:04;-3.70;17.10
4054;DHT22;2042;47.956;9.222;2024-01-15T01:10:29;-3.80;17.00
4054;DHT22;2042;47.956;9.222;2024-01-15T01:12:55;-3.80;16.90
4054;DHT22;2042;47.956;9.222;2024-01-15T01:15:21;-3.90;17.10
4054;DHT22;2042;47.956;9.222;2024-01-15T01:17:47;-3.90;17.50
4054;DHT22;2042;47.956;9.222;2024-01-15T01:20:12;-3.90;17.60
4054;DHT22;2042;47.956;9.222;2024-01-15T01:22:40;-4.00;17.50
4054;DHT22;2042;47.956;9.222;2024-01-15T01:25:06;-4.00;17.30
4054;DHT22;2042;47.956;9.222;2024-01-15T01:27:32;-4.10;16.80
4054;DHT22;2042;47.956;9.222;2024-01-15T01:29:58;-4.20;16.10
4054;DHT22;2042;47.956;9.222;2024-01-15T01:32:23;-4.30;15.80
4054;DHT22;2042;47.956;9.222;2024-01-15T01:34:49;-4.30;15.90
4054;DHT22;2042;47.956;9.222;2024-01-15T01:37:15;-4.30;17.20
4054;DHT22;2042;47.956;9.222;2024-01-15T01:39:44;-4.20;17.90
4054;DHT22;2042;47.956;9.222;2024-01-15T01:42:10;-4.20;17.90
4054;DHT22;2042;47.956;9.222;2024-01-15T01:44:37;-4.20;17.40
4054;DHT22;2042;47.956;9.222;2024-01-15T01:47:04;-4.20;16.00
4054;DHT22;2042;47.956;9.222;2024-01-15T01:49:30;-4.30;15.60
4054;DHT22;2042;47.956;9.222;2024-01-15T01:51:57;-4.40;15.60
4054;DHT22;2042;47.956;9.222;2024-01-15T01:54:26;-4.30;17.20
4054;DHT22;2042;47.956;9.222;2024-01-15T01:56:55;-4.20;18.80
4054;DHT22;2042;47.956;9.222;2024-01-15T01:59:23;-4.00;19.80
4054;DHT22;2042;47.956;9.222;2024-01-15T02:01:50;-3.90;20.30
4054;DHT22;2042;47.956;9.222;2024-01-15T02:04:16;-3.80;20.50
4054;DHT22;2042;47.956;9.222;2024-01-15T02:06:42;-3.70;20.50
4054;DHT22;2042;47.956;9.222;2024-01-15T02:09:08;-3.70;19.80
4054;DHT22;2042;47.956;9.222;2024-01-15T02:11:34;-3.80;19.00
4054;DHT22;2042;47.956;9.222;2024-01-15T02:14:00;-3.90;18.10
4054;DHT22;2042;47.956;9.222;2024-01-15T02:16:26;-4.10;17.40
4054;DHT22;2042;47.956;9.222;2024-01-15T02:18:52;-4.20;17.30
4054;DHT22;2042;47.956;9.222;2024-01-15T02:21:17;-4.20;17.40
4054;DHT22;2042;47.956;9.222;2024-01-15T02:23:43;-4.30;17.00
4054;DHT22;2042;47.956;9.222;2024-01-15T02:26:09;-4.40;16.30
4054;DHT22;2042;47.956;9.222;2024-01-15T02:28:35;-4.60;15.60
4054;DHT22;2042;47.956;9.222;2024-01-15T02:31:00;-4.70;15.40
4054;DHT22;2042;47.956;9.222;2024-01-15T02:33:26;-4.70;15.50
4054;DHT22;2042;47.956;9.222;2024-01-15T02:35:52;-4.70;16.30
4054;DHT22;2042;47.956;9.222;2024-01-15T02:38:18;-4.70;16.80
4054;DHT22;2042;47.956;9.222;2024-01-15T02:40:44;-4.70;17.50
4054;DHT22;2042;47.956;9.222;2024-01-15T02:43:10;-4.60;18.40
4054;DHT22;2042;47.956;9.222;2024-01-15T02:45:37;-4.50;19.30
4054;DHT22;2042;47.956;9.222;2024-01-15T02:48:02;-4.40;20.10
4054;DHT22;2042;47.956;9.222;2024-01-15T02:50:28;-4.20;21.00
4054;DHT22;2042;47.956;9.222;2024-01-15T02:52:54;-4.10;21.50
4054;DHT22;2042;47.956;9.222;2024-01-15T02:55:19;-4.00;21.70
4054;DHT22;2042;47.956;9.222;2024-01-15T02:57:45;-4.00;21.70
4054;DHT22;2042;47.956;9.222;2024-01-15T03:00:11;-4.00;21.90
4054;DHT22;2042;47.956;9.222;2024-01-15T03:02:38;-3.90;21.60
4054;DHT22;2042;47.956;9.222;2024-01-15T03:05:10;-4.00;20.60
4054;DHT22;2042;47.956;9.222;2024-01-15T03:07:36;-4.10;19.30
4054;DHT22;2042;47.956;9.222;2024-01-15T03:10:02;-4.30;18.00
4054;DHT22;2042;47.956;9.222;2024-01-15T03:12:27;-4.50;16.60
4054;DHT22;2042;47.956;9.222;2024-01-15T03:14:53;-4.60;15.80
4054;DHT22;2042;47.956;9.222;2024-01-15T03:17:19;-4.70;15.60
4054;DHT22;2042;47.956;9.222;2024-01-15T03:19:45;-4.90;15.20
4054;DHT22;2042;47.956;9.222;2024-01-15T03:22:10;-5.00;22.40
4054;DHT22;2042;47.956;9.222;2024-01-15T03:24:36;-5.00;22.30
4054;DHT22;2042;47.956;9.222;2024-01-15T03:27:02;-5.00;22.30
4054;DHT22;2042;47.956;9.222;2024-01-15T03:29:28;-5.00;23.20
4054;DHT22;2042;47.956;9.222;2024-01-15T03:31:54;-4.90;24.50
4054;DHT22;2042;47.956;9.222;2024-01-15T03:34:19;-4.80;24.30
4054;DHT22;2042;47.956;9.222;2024-01-15T03:36:45;-4.80;24.40
4054;DHT22;2042;47.956;9.222;2024-01-15T03:39:11;-4.80;24.30
4054;DHT22;2042;47.956;9.222;2024-01-15T03:41:36;-4.80;23.90
4054;DHT22;2042;47.956;9.222;2024-01-15T03:44:02;-4.80;23.70
4054;DHT22;2042;47.956;9.222;2024-01-15T03:46:28;-4.90;23.00
4054;DHT22;2042;47.956;9.222;2024-01-15T03:48:54;-5.00;22.60
4054;DHT22;2042;47.956;9.222;2024-01-15T03:51:20;-5.10;22.50
4054;DHT22;2042;47.956;9.222;2024-01-15T03:53:46;-5.10;22.80
4054;DHT22;2042;47.956;9.222;2024-01-15T03:56:12;-5.10;23.40
4054;DHT22;2042;47.956;9.222;2024-01-15T03:58:37;-5.10;24.00
4054;DHT22;2042;47.956;9.222;2024-01-15T04:01:03;-5.10;24.40
4054;DHT22;2042;47.956;9.222;2024-01-15T04:03:52;-5.00;25.10
4054;DHT22;2042;47.956;9.222;2024-01-15T04:06:17;-4.90;25.70
4054;DHT22;2042;47.956;9.222;2024-01-15T04:08:43;-4.90;25.90
4054;DHT22;2042;47.956;9.222;2024-01-15T04:11:08;-4.80;26.00
4054;DHT22;2042;47.956;9.222;2024-01-15T04:13:34;-4.90;25.80
4054;DHT22;2042;47.956;9.222;2024-01-15T04:16:00;-4.90;25.50
4054;DHT22;2042;47.956;9.222;2024-01-15T04:18:26;-5.00;25.30
4054;DHT22;2042;47.956;9.222;2024-01-15T04:20:51;-5.00;25.50
4054;DHT22;2042;47.956;9.222;2024-01-15T04:23:17;-5.00;25.80
4054;DHT22;2042;47.956;9.222;2024-01-15T04:25:42;-5.00;26.40
4054;DHT22;2042;47.956;9.222;2024-01-15T04:28:09;-4.90;26.90
4054;DHT22;2042;47.956;9.222;2024-01-15T04:30:35;-4.80;27.50
4054;DHT22;2042;47.956;9.222;2024-01-15T04:33:01;-4.70;28.00
4054;DHT22;2042;47.956;9.222;2024-01-15T04:35:26;-4.60;28.50
4054;DHT22;2042;47.956;9.222;2024-01-15T04:37:52;-4.50;28.80
4054;DHT22;2042;47.956;9.222;2024-01-15T04:40:19;-4.40;28.60
4054;DHT22;2042;47.956;9.222;2024-01-15T04:42:44;-4.40;28.70
4054;DHT22;2042;47.956;9.222;2024-01-15T04:45:13;-4.40;28.90
4054;DHT22;2042;47.956;9.222;2024-01-15T04:47:40;-4.40;29.40
4054;DHT22;2042;47.956;9.222;2024-01-15T04:50:06;-4.20;29.90
4054;DHT22;2042;47.956;9.222;2024-01-15T04:52:32;-4.00;31.00
4054;DHT22;2042;47.956;9.222;2024-01-15T04:54:58;-3.90;31.60
4054;DHT22;2042;47.956;9.222;2024-01-15T04:57:23;-3.80;31.90
4054;DHT22;2042;47.956;9.222;2024-01-15T04:59:49;-3.60;32.30
4054;DHT22;2042;47.956;9.222;2024-01-15T05:02:14;-3.50;32.70
4054;DHT22;2042;47.956;9.222;2024-01-15T05:04:41;-3.40;32.80
4054;DHT22;2042;47.956;9.222;2024-01-15T05:07:06;-3.40;33.20
4054;DHT22;2042;47.956;9.222;2024-01-15T05:09:32;-3.30;33.50
4054;DHT22;2042;47.956;9.222;2024-01-15T05:11:57;-3.20;33.30
4054;DHT22;2042;47.956;9.222;2024-01-15T05:14:23;-3.20;33.10
4054;DHT22;2042;47.956;9.222;2024-01-15T05:16:49;-3.20;33.00
4054;DHT22;2042;47.956;9.222;2024-01-15T05:19:15;-3.10;33.00
4054;DHT22;2042;47.956;9.222;2024-01-15T05:21:40;-3.10;33.20
4054;DHT22;2042;47.956;9.222;2024-01-15T05:24:07;-3.10;33.60
4054;DHT22;2042;47.956;9.222;2024-01-15T05:26:33;-3.00;33.90
4054;DHT22;2042;47.956;9.222;2024-01-15T05:28:58;-3.00;33.80
4054;DHT22;2042;47.956;9.222;2024-01-15T05:31:24;-2.90;34.10
4054;DHT22;2042;47.956;9.222;2024-01-15T05:33:50;-2.90;34.50
4054;DHT22;2042;47.956;9.222;2024-01-15T05:36:15;-2.90;34.40
4054;DHT22;2042;47.956;9.222;2024-01-15T05:38:41;-2.80;34.60
4054;DHT22;2042;47.956;9.222;2024-01-15T05:41:07;-2.70;34.50
4054;DHT22;2042;47.956;9.222;2024-01-15T05:43:32;-2.80;34.60
4054;DHT22;2042;47.956;9.222;2024-01-15T05:45:58;-2.70;34.30
4054;DHT22;2042;47.956;9.222;2024-01-15T05:48:24;-2.60;34.10
4054;DHT22;2042;47.956;9.222;2024-01-15T05:50:49;-2.60;33.80
4054;DHT22;2042;47.956;9.222;2024-01-15T05:53:15;-2.60;32.90
4054;DHT22;2042;47.956;9.222;2024-01-15T05:55:41;-2.60;32.60
4054;DHT22;2042;47.956;9.222;2024-01-15T05:58:06;-2.50;32.60
4054;DHT22;2042;47.956;9.222;2024-01-15T06:00:32;-2.50;32.60
4054;DHT22;2042;47.956;9.222;2024-01-15T06:02:59;-2.50;32.40
4054;DHT22;2042;47.956;9.222;2024-01-15T06:05:25;-2.50;32.40
4054;DHT22;2042;47.956;9.222;2024-01-15T06:07:51;-2.50;32.60
4054;DHT22;2042;47.956;9.222;2024-01-15T06:10:17;-2.50;32.60
4054;DHT22;2042;47.956;9.222;2024-01-15T06:12:43;-2.50;32.80
4054;DHT22;2042;47.956;9.222;2024-01-15T06:15:09;-2.50;32.90
4054;DHT22;2042;47.956;9.222;2024-01-15T06:17:35;-2.40;32.90
4054;DHT22;2042;47.956;9.222;2024-01-15T06:20:01;-2.50;32.60
4054;DHT22;2042;47.956;9.222;2024-01-15T06:22:27;-2.50;32.50
4054;DHT22;2042;47.956;9.222;2024-01-15T06:24:53;-2.50;32.60
4054;DHT22;2042;47.956;9.222;2024-01-15T06:27:18;-2.50;32.60
4054;DHT22;2042;47.956;9.222;2024-01-15T06:29:45;-2.50;32.80
4054;DHT22;2042;47.956;9.222;2024-01-15T06:32:12;-2.50;33.00
4054;DHT22;2042;47.956;9.222;2024-01-15T06:34:38;-2.50;33.10
4054;DHT22;2042;47.956;9.222;2024-01-15T06:37:03;-2.50;33.10
4054;DHT22;2042;47.956;9.222;2024-01-15T06:39:29;-2.50;33.80
4054;DHT22;2042;47.956;9.222;2024-01-15T06:41:55;-2.50;33.30
4054;DHT22;2042;47.956;9.222;2024-01-15T06:44:20;-2.50;33.20
4054;DHT22;2042;47.956;9.222;2024-01-15T06:46:47;-2.40;33.10
4054;DHT22;2042;47.956;9.222;2024-01-15T06:49:13;-2.40;32.90
4054;DHT22;2042;47.956;9.222;2024-01-15T06:51:39;-2.40;32.70
4054;DHT22;2042;47.956;9.222;2024-01-15T06:54:05;-2.40;32.50
4054;DHT22;2042;47.956;9.222;2024-01-15T06:56:31;-2.40;32.30
4054;DHT22;2042;47.956;9.222;2024-01-15T06:58:57;-2.40;32.00
4054;DHT22;2042;47.956;9.222;2024-01-15T07:01:23;-2.40;31.80
4054;DHT22;2042;47.956;9.222;2024-01-15T07:03:48;-2.40;35.30
4054;DHT22;2042;47.956;9.222;2024-01-15T07:06:14;-2.40;35.00
4054;DHT22;2042;47.956;9.222;2024-01-15T07:08:40;-2.40;34.70
4054;DHT22;2042;47.956;9.222;2024-01-15T07:11:07;-2.30;34.60
4054;DHT22;2042;47.956;9.222;2024-01-15T07:13:32;-2.30;34.10
4054;DHT22;2042;47.956;9.222;2024-01-15T07:15:58;-2.30;33.50
4054;DHT22;2042;47.956;9.222;2024-01-15T07:18:24;-2.20;33.30
4054;DHT22;2042;47.956;9.222;2024-01-15T07:20:50;-2.20;31.60
4054;DHT22;2042;47.956;9.222;2024-01-15T07:23:16;-2.30;31.00
4054;DHT22;2042;47.956;9.222;2024-01-15T07:25:42;-2.20;30.50
4054;DHT22;2042;47.956;9.222;2024-01-15T07:28:08;-2.20;30.00
4054;DHT22;2042;47.956;9.222;2024-01-15T07:30:34;-2.20;29.40
4054;DHT22;2042;47.956;9.222;2024-01-15T07:33:00;-2.20;29.00
4054;DHT22;2042;47.956;9.222;2024-01-15T07:35:25;-2.20;28.80
4054;DHT22;2042;47.956;9.222;2024-01-15T07:37:51;-2.10;28.70
4054;DHT22;2042;47.956;9.222;2024-01-15T07:40:17;-2.10;28.80
4054;DHT22;2042;47.956;9.222;2024-01-15T07:42:42;-2.10;28.80
4054;DHT22;2042;47.956;9.222;2024-01-15T07:45:09;-2.10;28.90
4054;DHT22;2042;47.956;9.222;2024-01-15T07:47:35;-2.00;28.40
4054;DHT22;2042;47.956;9.222;2024-01-15T07:50:01;-2.00;27.90
4054;DHT22;2042;47.956;9.222;2024-01-15T07:52:26;-2.00;27.40
4054;DHT22;2042;47.956;9.222;2024-01-15T07:54:52;-2.00;26.30
4054;DHT22;2042;47.956;9.222;2024-01-15T07:57:18;-1.90;24.30
4054;DHT22;2042;47.956;9.222;2024-01-15T07:59:43;-1.90;21.90
4054;DHT22;2042;47.956;9.222;2024-01-15T08:02:09;-1.90;18.90
4054;DHT22;2042;47.956;9.222;2024-01-15T08:04:37;-1.80;16.90
4054;DHT22;2042;47.956;9.222;2024-01-15T08:07:04;-1.80;14.60
4054;DHT22;2042;47.956;9.222;2024-01-15T08:09:31;-1.80;12.30
4054;DHT22;2042;47.956;9.222;2024-01-15T08:11:56;-1.70;10.20
4054;DHT22;2042;47.956;9.222;2024-01-15T08:14:22;-1.70;9.70
4054;DHT22;2042;47.956;9.222;2024-01-15T08:16:48;-1.60;6.50
4054;DHT22;2042;47.956;9.222;2024-01-15T08:19:13;-1.60;3.90
4054;DHT22;2042;47.956;9.222;2024-01-15T08:21:39;-1.50;1.30
4054;DHT22;2042;47.956;9.222;2024-01-15T08:24:05;-1.50;1.00
4054;DHT22;2042;47.956;9.222;2024-01-15T08:26:31;-1.50;1.00
4054;DHT22;2042;47.956;9.222;2024-01-15T08:28:58;-1.50;1.00
4054;DHT22;2042;47.956;9.222;2024-01-15T08:31:24;-1.40;1.00
4054;DHT22;2042;47.956;9.222;2024-01-15T08:33:50;-1.40;1.00
4054;DHT22;2042;47.956;9.222;2024-01-15T08:36:15;-1.30;1.00
4054;DHT22;2042;47.956;9.222;2024-01-15T08:38:41;-1.30;1.00
4054;DHT22;2042;47.956;9.222;2024-01-15T08:41:07;-1.30;1.00
4054;DHT22;2042;47.956;9.222;2024-01-15T08:43:34;-1.20;1.00
4054;DHT22;2042;47.956;9.222;2024-01-15T08:45:59;-1.20;1.00
4054;DHT22;2042;47.956;9.222;2024-01-15T08:48:26;-1.10;1.00
4054;DHT22;2042;47.956;9.222;2024-01-15T08:50:55;-1.10;1.00
4054;DHT22;2042;47.956;9.222;2024-01-15T08:53:21;-1.00;1.00
4054;DHT22;2042;47.956;9.222;2024-01-15T08:55:47;-1.00;1.00
4054;DHT22;2042;47.956;9.222;2024-01-15T08:58:13;-0.90;1.00
4054;DHT22;2042;47.956;9.222;2024-01-15T09:00:39;-0.90;1.00
4054;DHT22;2042;47.956;9.222;2024-01-15T09:03:05;-0.80;1.00
4054;DHT22;2042;47.956;9.222;2024-01-15T09:05:31;-0.80;1.00
4054;DHT22;2042;47.956;9.222;2024-01-15T09:07:57;-0.80;1.00
4054;DHT22;2042;47.956;9.222;2024-01-15T09:10:23;-0.60;1.00
4054;DHT22;2042;47.956;9.222;2024-01-15T09:12:49;-0.60;1.00
4054;DHT22;2042;47.956;9.222;2024-01-15T09:15:15;-0.50;1.00
4054;DHT22;2042;47.956;9.222;2024-01-15T09:17:41;-0.40;1.00
4054;DHT22;2042;47.956;9.222;2024-01-15T09:20:07;-0.30;1.00
4054;DHT22;2042;47.956;9.222;2024-01-15T09:22:33;-0.40;1.00
4054;DHT22;2042;47.956;9.222;2024-01-15T09:24:59;-0.40;1.00
4054;DHT22;2042;47.956;9.222;2024-01-15T09:27:25;-0.60;1.00
4054;DHT22;2042;47.956;9.222;2024-01-15T09:29:52;-0.80;1.00
4054;DHT22;2042;47.956;9.222;2024-01-15T09:32:17;-0.70;1.00
4054;DHT22;2042;47.956;9.222;2024-01-15T09:34:45;1.30;1.00
4054;DHT22;2042;47.956;9.222;2024-01-15T09:37:11;4.30;1.00
4054;DHT22;2042;47.956;9.222;2024-01-15T09:39:37;6.70;1.00
4054;DHT22;2042;47.956;9.222;2024-01-15T09:42:03;8.30;1.00
4054;DHT22;2042;47.956;9.222;2024-01-15T09:44:29;9.90;1.00
4054;DHT22;2042;47.956;9.222;2024-01-15T09:46:56;11.20;1.00
4054;DHT22;2042;47.956;9.222;2024-01-15T09:49:22;11.10;1.00
4054;DHT22;2042;47.956;9.222;2024-01-15T09:51:49;11.30;1.00
4054;DHT22;2042;47.956;9.222;2024-01-15T09:54:16;11.40;1.00
4054;DHT22;2042;47.956;9.222;2024-01-15T09:56:48;10.90;1.00
4054;DHT22;2042;47.956;9.222;2024-01-15T09:59:18;9.60;1.00
4054;DHT22;2042;47.956;9.222;2024-01-15T10:01:45;8.40;1.00
4054;DHT22;2042;47.956;9.222;2024-01-15T10:04:11;7.80;1.00
4054;DHT22;2042;47.956;9.222;2024-01-15T10:06:38;7.60;1.00
4054;DHT22;2042;47.956;9.222;2024-01-15T10:09:07;7.20;1.00
4054;DHT22;2042;47.956;9.222;2024-01-15T10:11:33;7.20;1.00
4054;DHT22;2042;47.956;9.222;2024-01-15T10:13:59;7.90;1.00
4054;DHT22;2042;47.956;9.222;2024-01-15T10:16:25;9.30;1.00
4054;DHT22;2042;47.956;9.222;2024-01-15T10:18:51;10.90;1.00
4054;DHT22;2042;47.956;9.222;2024-01-15T10:21:17;11.90;1.00
4054;DHT22;2042;47.956;9.222;2024-01-15T10:23:43;13.20;1.00
4054;DHT22;2042;47.956;9.222;2024-01-15T10:26:09;14.30;1.00
4054;DHT22;2042;47.956;9.222;2024-01-15T10:28:37;15.10;1.00
4054;DHT22;2042;47.956;9.222;2024-01-15T10:31:03;15.30;1.00
4054;DHT22;2042;47.956;9.222;2024-01-15T10:33:29;15.30;1.00
4054;DHT22;2042;47.956;9.222;2024-01-15T10:35:56;15.70;1.00
4054;DHT22;2042;47.956;9.222;2024-01-15T10:38:22;16.00;1.00
4054;DHT22;2042;47.956;9.222;2024-01-15T10:40:51;15.20;1.00
4054;DHT22;2042;47.956;9.222;2024-01-15T10:43:17;14.30;1.00
4054;DHT22;2042;47.956;9.222;2024-01-15T10:45:45;14.90;1.00
4054;DHT22;2042;47.956;9.222;2024-01-15T10:48:11;15.40;1.00
4054;DHT22;2042;47.956;9.222;2024-01-15T10:50:37;15.50;1.00
4054;DHT22;2042;47.956;9.222;2024-01-15T10:53:04;14.40;1.00
4054;DHT22;2042;47.956;9.222;2024-01-15T10:55:31;13.60;1.00
4054;DHT22;2042;47.956;9.222;2024-01-15T10:57:58;13.60;1.00
4054;DHT22;2042;47.956;9.222;2024-01-15T11:00:24;13.70;1.00
4054;DHT22;2042;47.956;9.222;2024-01-15T11:02:51;13.80;1.00
4054;DHT22;2042;47.956;9.222;2024-01-15T11:05:18;13.60;1.00
4054;DHT22;2042;47.956;9.222;2024-01-15T11:07:48;14.10;1.00
4054;DHT22;2042;47.956;9.222;2024-01-15T11:13:09;15.60;1.00
4054;DHT22;2042;47.956;9.222;2024-01-15T11:16:01;16.70;1.00
4054;DHT22;2042;47.956;9.222;2024-01-15T11:18:28;15.70;1.00
4054;DHT22;2042;47.956;9.222;2024-01-15T11:24:00;11.40;1.00
4054;DHT22;2042;47.956;9.222;2024-01-15T11:26:43;10.40;1.00
4054;DHT22;2042;47.956;9.222;2024-01-15T11:32:08;7.80;1.00
4054;DHT22;2042;47.956;9.222;2024-01-15T11:37:18;5.40;1.00
4054;DHT22;2042;47.956;9.222;2024-01-15T11:39:44;4.80;1.00
4054;DHT22;2042;47.956;9.222;2024-01-15T11:42:12;4.40;1.00
4054;DHT22;2042;47.956;9.222;2024-01-15T11:44:39;4.10;1.00
4054;DHT22;2042;47.956;9.222;2024-01-15T11:47:09;3.90;1.00
4054;DHT22;2042;47.956;9.222;2024-01-15T11:50:00;3.80;1.00
4054;DHT22;2042;47.956;9.222;2024-01-15T11:52:33;3.80;1.00
4054;DHT22;2042;47.956;9.222;2024-01-15T11:55:12;4.00;1.00
4054;DHT22;2042;47.956;9.222;2024-01-15T11:57:40;4.00;1.00
4054;DHT22;2042;47.956;9.222;2024-01-15T12:00:09;3.90;1.00
4054;DHT22;2042;47.956;9.222;2024-01-15T12:02:36;3.80;1.00
4054;DHT22;2042;47.956;9.222;2024-01-15T12:05:02;3.80;1.00
4054;DHT22;2042;47.956;9.222;2024-01-15T12:07:28;3.60;1.00
4054;DHT22;2042;47.956;9.222;2024-01-15T12:09:54;3.60;1.00
4054;DHT22;2042;47.956;9.222;2024-01-15T12:12:58;3.60;1.00
4054;DHT22;2042;47.956;9.222;2024-01-15T12:15:26;3.90;1.00
4054;DHT22;2042;47.956;9.222;2024-01-15T12:17:53;4.10;1.00
4054;DHT22;2042;47.956;9.222;2024-01-15T12:20:20;4.00;1.00
4054;DHT22;2042;47.956;9.222;2024-01-15T12:22:45;4.00;1.00
4054;DHT22;2042;47.956;9.222;2024-01-15T12:25:11;4.00;1.00
4054;DHT22;2042;47.956;9.222;2024-01-15T12:27:37;3.80;1.00
4054;DHT22;2042;47.956;9.222;2024-01-15T12:30:03;3.70;1.00
4054;DHT22;2042;47.956;9.222;2024-01-15T12:32:29;3.60;1.00
4054;DHT22;2042;47.956;9.222;2024-01-15T12:34:55;3.60;1.00
4054;DHT22;2042;47.956;9.222;2024-01-15T12:37:21;3.50;1.00
4054;DHT22;2042;47.956;9.222;2024-01-15T12:39:47;3.50;1.00
4054;DHT22;2042;47.956;9.222;2024-01-15T12:42:17;3.50;1.00
4054;DHT22;2042;47.956;9.222;2024-01-15T12:44:44;3.50;1.00
4054;DHT22;2042;47.956;9.222;2024-01-15T12:47:10;3.50;1.00
4054;DHT22;2042;47.956;9.222;2024-01-15T12:49:37;3.60;1.00
4054;DHT22;2042;47.956;9.222;2024-01-15T12:52:03;3.50;1.00
4054;DHT22;2042;47.956;9.222;2024-01-15T12:54:28;3.60;1.00
4054;DHT22;2042;47.956;9.222;2024-01-15T12:56:55;3.50;1.00
4054;DHT22;2042;47.956;9.222;2024-01-15T12:59:20;3.50;1.00
4054;DHT22;2042;47.956;9.222;2024-01-15T13:01:46;3.50;1.00
4054;DHT22;2042;47.956;9.222;2024-01-15T13:04:24;3.50;1.00
4054;DHT22;2042;47.956;9.222;2024-01-15T13:06:50;3.60;1.00
4054;DHT22;2042;47.956;9.222;2024-01-15T13:09:17;3.60;1.00
4054;DHT22;2042;47.956;9.222;2024-01-15T13:11:43;3.60;1.00
4054;DHT22;2042;47.956;9.222;2024-01-15T13:14:10;3.60;1.00
4054;DHT22;2042;47.956;9.222;2024-01-15T13:16:36;3.50;1.00
4054;DHT22;2042;47.956;9.222;2024-01-15T13:19:01;3.40;1.00
4054;DHT22;2042;47.956;9.222;2024-01-15T13:21:29;3.20;1.00
4054;DHT22;2042;47.956;9.222;2024-01-15T13:23:55;3.10;1.00
4054;DHT22;2042;47.956;9.222;2024-01-15T13:26:21;3.00;1.00
4054;DHT22;2042;47.956;9.222;2024-01-15T13:28:47;3.00;1.00
4054;DHT22;2042;47.956;9.222;2024-01-15T13:31:12;3.00;1.00
4054;DHT22;2042;47.956;9.222;2024-01-15T13:33:38;3.00;1.00
4054;DHT22;2042;47.956;9.222;2024-01-15T13:36:05;2.90;1.00
4054;DHT22;2042;47.956;9.222;2024-01-15T13:38:33;2.90;1.00
4054;DHT22;2042;47.956;9.222;2024-01-15T13:41:02;2.90;1.00
4054;DHT22;2042;47.956;9.222;2024-01-15T13:43:28;2.90;1.00
4054;DHT22;2042;47.956;9.222;2024-01-15T13:45:53;2.90;1.00
4054;DHT22;2042;47.956;9.222;2024-01-15T13:48:20;2.90;1.00
4054;DHT22;2042;47.956;9.222;2024-01-15T13:50:45;2.90;1.00
4054;DHT22;2042;47.956;9.222;2024-01-15T13:53:11;2.80;1.00
4054;DHT22;2042;47.956;9.222;2024-01-15T13:55:37;2.70;1.00
4054;DHT22;2042;47.956;9.222;2024-01-15T13:58:03;2.70;1.00
4054;DHT22;2042;47.956;9.222;2024-01-15T14:00:31;2.60;1.00
4054;DHT22;2042;47.956;9.222;2024-01-15T14:02:57;2.60;1.00
4054;DHT22;2042;47.956;9.222;2024-01-15T14:05:23;2.50;1.00
4054;DHT22;2042;47.956;9.222;2024-01-15T14:07:49;2.50;1.00
4054;DHT22;2042;47.956;9.222;2024-01-15T14:10:15;2.40;1.00
4054;DHT22;2042;47.956;9.222;2024-01-15T14:12:41;2.30;1.00
4054;DHT22;2042;47.956;9.222;2024-01-15T14:15:08;2.20;1.00
4054;DHT22;2042;47.956;9.222;2024-01-15T14:17:34;2.10;1.00
4054;DHT22;2042;47.956;9.222;2024-01-15T14:20:00;2.00;1.00
4054;DHT22;2042;47.956;9.222;2024-01-15T14:22:25;1.90;1.00
4054;DHT22;2042;47.956;9.222;2024-01-15T14:24:51;1.80;1.00
4054;DHT22;2042;47.956;9.222;2024-01-15T14:27:17;1.70;1.00
4054;DHT22;2042;47.956;9.222;2024-01-15T14:29:43;1.60;1.00
4054;DHT22;2042;47.956;9.222;2024-01-15T14:32:08;1.60;1.00
4054;DHT22;2042;47.956;9.222;2024-01-15T14:34:34;1.50;1.00
4054;DHT22;2042;47.956;9.222;2024-01-15T14:37:02;1.40;1.00
4054;DHT22;2042;47.956;9.222;2024-01-15T14:39:28;1.30;1.00
4054;DHT22;2042;47.956;9.222;2024-01-15T14:41:54;1.30;1.00
4054;DHT22;2042;47.956;9.222;2024-01-15T14:44:20;1.20;1.00
4054;DHT22;2042;47.956;9.222;2024-01-15T14:46:46;1.20;1.00
4054;DHT22;2042;47.956;9.222;2024-01-15T14:49:12;1.10;1.00
4054;DHT22;2042;47.956;9.222;2024-01-15T14:51:37;1.10;1.00
4054;DHT22;2042;47.956;9.222;2024-01-15T14:54:03;1.00;1.00
4054;DHT22;2042;47.956;9.222;2024-01-15T14:56:29;1.00;1.00
4054;DHT22;2042;47.956;9.222;2024-01-15T14:58:54;0.90;1.00
4054;DHT22;2042;47.956;9.222;2024-01-15T15:01:20;0.90;1.00
4054;DHT22;2042;47.956;9.222;2024-01-15T15:03:48;0.90;1.00
4054;DHT22;2042;47.956;9.222;2024-01-15T15:06:14;0.80;1.00
4054;DHT22;2042;47.956;9.222;2024-01-15T15:08:39;0.80;1.00
4054;DHT22;2042;47.956;9.222;2024-01-15T15:11:06;0.80;1.00
4054;DHT22;2042;47.956;9.222;2024-01-15T15:13:32;0.80;1.00
4054;DHT22;2042;47.956;9.222;2024-01-15T15:16:00;0.70;1.00
4054;DHT22;2042;47.956;9.222;2024-01-15T15:18:26;0.70;1.00
4054;DHT22;2042;47.956;9.222;2024-01-15T15:20:51;0.60;1.00
4054;DHT22;2042;47.956;9.222;2024-01-15T15:23:18;0.50;1.00
4054;DHT22;2042;47.956;9.222;2024-01-15T15:25:43;0.50;1.00
4054;DHT22;2042;47.956;9.222;2024-01-15T15:28:09;0.50;1.00
4054;DHT22;2042;47.956;9.222;2024-01-15T15:30:37;0.40;1.00
4054;DHT22;2042;47.956;9.222;2024-01-15T15:33:03;0.40;1.00
4054;DHT22;2042;47.956;9.222;2024-01-15T15:35:28;0.30;1.00
4054;DHT22;2042;47.956;9.222;2024-01-15T15:37:54;0.30;1.00
4054;DHT22;2042;47.956;9.222;2024-01-15T15:40:20;0.30;1.00
4054;DHT22;2042;47.956;9.222;2024-01-15T15:42:46;0.20;1.00
4054;DHT22;2042;47.956;9.222;2024-01-15T15:45:12;0.20;1.00
4054;DHT22;2042;47.956;9.222;2024-01-15T15:47:38;0.10;1.00
4054;DHT22;2042;47.956;9.222;2024-01-15T15:50:04;0.10;1.00
4054;DHT22;2042;47.956;9.222;2024-01-15T15:52:31;0.10;1.00
4054;DHT22;2042;47.956;9.222;2024-01-15T15:54:56;0.10;1.00
4054;DHT22;2042;47.956;9.222;2024-01-15T15:57:22;0.00;1.00
4054;DHT22;2042;47.956;9.222;2024-01-15T15:59:49;0.00;1.00
4054;DHT22;2042;47.956;9.222;2024-01-15T16:02:15;0.00;1.00
4054;DHT22;2042;47.956;9.222;2024-01-15T16:04:41;0.00;1.00
4054;DHT22;2042;47.956;9.222;2024-01-15T16:07:06;0.00;1.00
4054;DHT22;2042;47.956;9.222;2024-01-15T16:09:35;-0.10;1.00
4054;DHT22;2042;47.956;9.222;2024-01-15T16:12:01;-0.10;1.00
4054;DHT22;2042;47.956;9.222;2024-01-15T16:14:27;-0.10;1.00
4054;DHT22;2042;47.956;9.222;2024-01-15T16:16:53;-0.10;1.00
4054;DHT22;2042;47.956;9.222;2024-01-15T16:19:23;-0.10;1.00
4054;DHT22;2042;47.956;9.222;2024-01-15T16:21:49;-0.20;1.00